Time;durP1;ratioP1;P1;durP2;ratioP2;P2;SDS_P1;SDS_P2;PMS_P1;PMS_P2;Temp;Humidity;BMP_temperature;BMP_pressure;BME280_temperature;BME280_humidity;BME280_pressure;Samples;Min_cycle;Max_cycle;Signal;HPM_P1;HPM_P2
2022/01/28 00:00:41;;;;;;;18.23;5.83;;;6.40;99.90;;;;;;5108717;28;20193;-77
2022/01/28 00:03:10;;;;;;;14.57;5.37;;;6.30;99.90;;;;;;5109225;28;20782;-87
2022/01/28 00:05:39;;;;;;;17.27;6.03;;;6.40;99.90;;;;;;5110377;28;20189;-90
2022/01/28 00:08:09;;;;;;;20.17;5.97;;;6.30;99.90;;;;;;5108665;28;20200;-88
2022/01/28 00:10:42;;;;;;;15.97;6.20;;;6.40;99.90;;;;;;5109882;28;20200;-85
2022/01/28 00:13:22;;;;;;;13.53;5.70;;;6.30;99.90;;;;;;5109396;28;20201;-87
2022/01/28 00:16:26;;;;;;;15.20;5.43;;;6.40;99.90;;;;;;5108764;28;20203;-89
2022/01/28 00:19:39;;;;;;;17.30;5.13;;;6.30;99.90;;;;;;5107672;28;20197;-86
2022/01/28 00:38:58;;;;;;;12.83;5.70;;;6.10;99.90;;;;;;5111311;28;20219;-81
2022/01/28 00:41:25;;;;;;;20.83;5.47;;;6.10;99.90;;;;;;5113240;28;20203;-81
2022/01/28 00:43:52;;;;;;;17.67;5.70;;;6.20;99.90;;;;;;5112722;28;20232;-82
2022/01/28 00:46:20;;;;;;;17.48;6.93;;;6.10;99.90;;;;;;5111554;28;20402;-85
2022/01/28 00:48:46;;;;;;;18.63;5.90;;;6.20;99.90;;;;;;5111836;28;20514;-87
2022/01/28 00:51:13;;;;;;;9.73;5.47;;;6.10;99.90;;;;;;5113995;28;20213;-83
2022/01/28 00:53:46;;;;;;;27.10;6.53;;;6.00;99.90;;;;;;5113229;28;20193;-81
2022/01/28 00:56:21;;;;;;;20.53;5.83;;;6.00;99.90;;;;;;5110981;28;20201;-84
2022/01/28 00:58:51;;;;;;;19.47;5.83;;;5.90;99.90;;;;;;5109631;28;20265;-82
2022/01/28 01:01:22;;;;;;;11.43;4.87;;;5.90;99.90;;;;;;5109983;28;20235;-76
2022/01/28 01:03:48;;;;;;;13.47;5.43;;;5.90;99.90;;;;;;5108569;28;20212;-81
2022/01/28 01:06:18;;;;;;;17.50;6.43;;;5.90;99.90;;;;;;5108897;28;20201;-86
2022/01/28 01:08:48;;;;;;;26.23;6.10;;;5.90;99.90;;;;;;5109907;28;20196;-88
2022/01/28 01:11:31;;;;;;;13.80;5.30;;;5.90;99.90;;;;;;5112169;28;20232;-82
2022/01/28 01:14:04;;;;;;;17.13;6.00;;;5.80;99.90;;;;;;5109438;28;20268;-76
2022/01/28 01:16:41;;;;;;;15.73;6.23;;;5.80;99.90;;;;;;5110034;28;20201;-86
2022/01/28 01:19:21;;;;;;;21.63;6.67;;;5.80;99.90;;;;;;5109681;28;20216;-82
2022/01/28 01:21:57;;;;;;;15.60;5.73;;;5.70;99.90;;;;;;5108207;28;20196;-86
2022/01/28 01:24:35;;;;;;;16.70;5.67;;;5.70;99.90;;;;;;5108531;28;20196;-83
2022/01/28 01:27:11;;;;;;;17.73;6.53;;;5.60;99.90;;;;;;5110077;28;20193;-86
2022/01/28 01:29:42;;;;;;;16.13;5.83;;;5.60;99.90;;;;;;5109228;28;20189;-80
2022/01/28 01:32:14;;;;;;;11.80;5.47;;;5.50;99.90;;;;;;5110169;28;20236;-85
2022/01/28 01:34:43;;;;;;;12.20;5.87;;;5.40;99.90;;;;;;5111070;28;20201;-88
2022/01/28 01:37:16;;;;;;;15.47;6.73;;;5.30;99.90;;;;;;5107740;28;20251;-80
2022/01/28 01:39:47;;;;;;;14.90;6.03;;;5.20;99.90;;;;;;5110414;28;20200;-88
2022/01/28 01:42:29;;;;;;;17.93;6.07;;;5.20;99.90;;;;;;5108758;28;20288;-87
2022/01/28 01:45:48;;;;;;;13.60;6.03;;;5.20;99.90;;;;;;5107978;28;20233;-77
2022/01/28 01:53:55;;;;;;;13.73;6.57;;;5.20;99.90;;;;;;5113468;28;20191;-78
2022/01/28 01:56:25;;;;;;;26.70;6.67;;;5.20;99.90;;;;;;5111743;28;20204;-79
2022/01/28 01:58:56;;;;;;;18.37;5.97;;;5.30;99.90;;;;;;5112368;28;20213;-79
2022/01/28 02:01:24;;;;;;;20.27;6.10;;;5.20;99.90;;;;;;5114340;28;20263;-86
2022/01/28 02:03:54;;;;;;;16.17;6.43;;;5.30;99.90;;;;;;5113528;28;20212;-76
2022/01/28 02:06:23;;;;;;;13.60;5.53;;;5.30;99.90;;;;;;5104447;28;20205;-75
2022/01/28 02:08:51;;;;;;;13.90;6.77;;;5.30;99.90;;;;;;5104227;28;20201;-78
2022/01/28 02:11:18;;;;;;;19.33;7.27;;;5.20;99.90;;;;;;5105153;28;20449;-74
2022/01/28 02:13:49;;;;;;;13.17;5.67;;;5.10;99.90;;;;;;5104241;28;20207;-78
2022/01/28 02:16:20;;;;;;;17.50;5.97;;;5.20;99.90;;;;;;5104444;28;20236;-76
2022/01/28 02:18:47;;;;;;;16.60;5.90;;;5.20;99.90;;;;;;5103861;28;20254;-76
2022/01/28 02:21:23;;;;;;;18.20;5.83;;;5.30;99.90;;;;;;5101429;28;20264;-79
2022/01/28 02:23:55;;;;;;;17.57;6.17;;;5.30;99.90;;;;;;5100935;28;20239;-79
2022/01/28 02:26:22;;;;;;;19.70;5.90;;;5.40;99.90;;;;;;5100001;28;20201;-75
2022/01/28 02:28:55;;;;;;;13.67;5.93;;;5.30;99.90;;;;;;5102635;28;20201;-75
2022/01/28 02:31:25;;;;;;;20.53;6.20;;;5.30;99.90;;;;;;5102920;28;20213;-75
2022/01/28 02:33:56;;;;;;;17.10;5.30;;;5.20;99.90;;;;;;5103185;28;20247;-79
2022/01/28 02:36:25;;;;;;;15.73;5.60;;;5.20;99.90;;;;;;5104024;28;20284;-78
2022/01/28 02:38:55;;;;;;;18.50;6.07;;;5.20;99.90;;;;;;5102111;28;20292;-75
2022/01/28 02:41:32;;;;;;;21.97;6.17;;;5.20;99.90;;;;;;5102182;28;20212;-79
2022/01/28 02:44:10;;;;;;;12.13;5.10;;;5.20;99.90;;;;;;5099103;28;20232;-76
2022/01/28 02:46:41;;;;;;;13.67;5.50;;;5.30;99.90;;;;;;5099761;28;20308;-81
2022/01/28 02:49:11;;;;;;;19.40;6.07;;;5.20;99.90;;;;;;5099061;28;20190;-76
2022/01/28 02:51:46;;;;;;;21.70;5.87;;;5.20;99.90;;;;;;5099299;28;20220;-75
2022/01/28 02:54:16;;;;;;;17.53;6.13;;;5.20;99.90;;;;;;5100504;28;20604;-79
2022/01/28 02:56:47;;;;;;;18.33;5.50;;;5.20;99.90;;;;;;5099071;28;20228;-75
2022/01/28 02:59:15;;;;;;;17.47;5.60;;;5.20;99.90;;;;;;5099615;28;20224;-76
2022/01/28 03:01:42;;;;;;;16.97;5.77;;;5.20;99.90;;;;;;5099056;28;20213;-82
2022/01/28 03:04:18;;;;;;;21.65;7.75;;;5.10;99.90;;;;;;5097801;28;20524;-79
2022/01/28 03:06:46;;;;;;;24.10;6.30;;;5.30;99.90;;;;;;5098961;28;20201;-78
2022/01/28 03:09:17;;;;;;;22.97;6.63;;;5.20;99.90;;;;;;5098472;28;20656;-84
2022/01/28 03:11:49;;;;;;;28.20;7.77;;;5.00;99.90;;;;;;5097657;28;20221;-78
2022/01/28 03:14:21;;;;;;;19.40;6.57;;;4.80;99.90;;;;;;5099545;28;20338;-79
2022/01/28 03:17:02;;;;;;;22.10;6.00;;;4.80;99.90;;;;;;5099582;28;20258;-78
2022/01/28 03:19:42;;;;;;;20.87;6.50;;;4.80;99.90;;;;;;5100512;28;20233;-84
2022/01/28 03:22:11;;;;;;;15.77;6.40;;;4.80;99.90;;;;;;5099605;28;20197;-79
2022/01/28 03:24:40;;;;;;;15.23;6.00;;;4.70;99.90;;;;;;5100821;28;20197;-78
2022/01/28 03:27:18;;;;;;;20.40;6.37;;;4.70;99.90;;;;;;5101562;28;20209;-82
2022/01/28 03:29:44;;;;;;;19.50;6.13;;;4.70;99.90;;;;;;5098732;28;20451;-77
2022/01/28 03:32:11;;;;;;;19.70;6.73;;;4.70;99.90;;;;;;5099018;28;20225;-77
2022/01/28 03:34:38;;;;;;;18.37;5.83;;;4.80;99.90;;;;;;5099089;28;20695;-80
2022/01/28 03:37:08;;;;;;;19.30;6.33;;;4.80;99.90;;;;;;5097998;28;20193;-78
2022/01/28 03:39:37;;;;;;;21.73;8.57;;;4.70;99.90;;;;;;5097973;28;20422;-77
2022/01/28 03:42:07;;;;;;;24.20;7.57;;;4.80;99.90;;;;;;5105450;28;20201;-92
2022/01/28 03:44:35;;;;;;;18.83;7.00;;;4.70;99.90;;;;;;5100022;28;20225;-77
2022/01/28 03:47:02;;;;;;;21.33;7.13;;;4.70;99.90;;;;;;5094664;28;20219;-76
2022/01/28 03:49:29;;;;;;;14.90;6.67;;;4.60;99.90;;;;;;5096543;28;20201;-74
2022/01/28 03:51:58;;;;;;;22.50;6.70;;;4.70;99.90;;;;;;5098188;28;20224;-75
2022/01/28 03:54:26;;;;;;;17.73;6.73;;;4.60;99.90;;;;;;5099129;28;20731;-74
2022/01/28 03:56:54;;;;;;;19.67;6.37;;;4.60;99.90;;;;;;5096044;28;20202;-77
2022/01/28 03:59:21;;;;;;;23.63;7.43;;;4.70;99.90;;;;;;5095722;28;20205;-75
2022/01/28 04:01:51;;;;;;;22.93;6.83;;;4.70;99.90;;;;;;5095454;28;20536;-75
2022/01/28 04:12:39;;;;;;;22.17;7.40;;;4.70;99.90;;;;;;5098637;28;20220;-77
2022/01/28 04:15:21;;;;;;;22.92;9.70;;;4.70;99.90;;;;;;5098107;28;20472;-75
2022/01/28 04:17:48;;;;;;;21.60;7.67;;;4.90;99.90;;;;;;5095525;28;20201;-80
2022/01/28 04:20:17;;;;;;;27.03;8.40;;;5.00;99.90;;;;;;5096097;28;20208;-77
2022/01/28 04:22:44;;;;;;;22.07;8.57;;;5.00;99.90;;;;;;5096651;28;20212;-79
2022/01/28 04:25:13;;;;;;;24.67;7.97;;;5.00;99.90;;;;;;5097421;28;20189;-76
2022/01/28 04:27:41;;;;;;;24.37;9.20;;;5.00;99.90;;;;;;5096691;28;20201;-76
2022/01/28 04:30:09;;;;;;;25.23;8.90;;;4.90;99.90;;;;;;5096316;28;20186;-77
2022/01/28 04:32:39;;;;;;;23.07;8.00;;;5.00;99.90;;;;;;5094946;28;20279;-85
2022/01/28 04:35:08;;;;;;;18.77;8.60;;;5.00;99.90;;;;;;5093301;28;20288;-80
2022/01/28 04:37:43;;;;;;;20.93;8.20;;;5.00;99.90;;;;;;5093630;28;20581;-84
2022/01/28 04:40:16;;;;;;;18.30;7.40;;;5.00;99.90;;;;;;5094906;28;20258;-79
2022/01/28 04:43:01;;;;;;;30.00;8.57;;;4.90;99.90;;;;;;5096653;28;20480;-79
2022/01/28 04:45:37;;;;;;;28.47;8.83;;;5.00;99.90;;;;;;5097019;28;20295;-77
2022/01/28 04:48:14;;;;;;;19.47;8.17;;;4.80;99.90;;;;;;5096106;28;20268;-78
2022/01/28 04:50:52;;;;;;;20.53;9.50;;;4.80;99.90;;;;;;5095902;28;20205;-77
2022/01/28 04:53:38;;;;;;;20.23;8.40;;;4.80;99.90;;;;;;5097699;28;20520;-81
2022/01/28 04:56:22;;;;;;;22.27;8.60;;;4.70;99.90;;;;;;5097570;28;20913;-79
2022/01/28 04:59:07;;;;;;;24.07;9.23;;;4.70;99.90;;;;;;5098487;28;20558;-80
2022/01/28 05:10:30;;;;;;;29.20;9.63;;;4.60;99.90;;;;;;5097145;28;20417;-77
2022/01/28 05:16:17;;;;;;;26.93;10.50;;;4.70;99.90;;;;;;5095946;28;20433;-78
2022/01/28 05:26:59;;;;;;;22.73;9.47;;;4.40;99.90;;;;;;5096324;28;21053;-75
2022/01/28 05:29:26;;;;;;;20.30;10.30;;;4.40;99.90;;;;;;5097619;28;20476;-76
2022/01/28 05:31:54;;;;;;;21.27;10.13;;;4.40;99.90;;;;;;5099641;28;20426;-79
2022/01/28 05:34:23;;;;;;;27.47;10.87;;;4.40;99.90;;;;;;5098610;28;20474;-76
2022/01/28 05:36:52;;;;;;;22.83;11.10;;;4.40;99.90;;;;;;5100014;28;20466;-76
2022/01/28 05:39:19;;;;;;;19.83;10.20;;;4.40;99.90;;;;;;5099387;28;20538;-76
2022/01/28 05:41:47;;;;;;;27.20;10.77;;;4.40;99.90;;;;;;5100042;28;20446;-75
2022/01/28 05:44:18;;;;;;;34.20;11.23;;;4.40;99.90;;;;;;5099261;28;20469;-75
2022/01/28 05:46:45;;;;;;;30.40;11.70;;;4.40;99.90;;;;;;5099264;28;20537;-78
2022/01/28 05:49:16;;;;;;;25.93;11.10;;;4.50;99.90;;;;;;5097711;28;20205;-75
2022/01/28 05:51:44;;;;;;;26.40;10.70;;;4.50;99.90;;;;;;5097816;28;21012;-75
2022/01/28 05:54:11;;;;;;;28.90;10.70;;;4.50;99.90;;;;;;5096814;28;20490;-75
2022/01/28 05:56:40;;;;;;;20.93;10.43;;;4.50;99.90;;;;;;5096058;28;20817;-75
2022/01/28 05:59:08;;;;;;;21.57;9.10;;;4.50;99.90;;;;;;5095709;28;20454;-76
2022/01/28 06:01:35;;;;;;;20.73;9.47;;;4.40;99.90;;;;;;5094349;28;20548;-76
2022/01/28 06:04:02;;;;;;;23.63;9.80;;;4.30;99.90;;;;;;5094196;28;20449;-76
2022/01/28 06:06:32;;;;;;;26.57;10.43;;;4.40;99.90;;;;;;5093335;28;20524;-76
2022/01/28 06:09:01;;;;;;;30.83;10.23;;;4.40;99.90;;;;;;5095650;28;20521;-77
2022/01/28 06:11:30;;;;;;;32.13;11.70;;;4.40;99.90;;;;;;5095602;28;20205;-78
2022/01/28 06:13:57;;;;;;;33.00;17.40;;;4.40;99.90;;;;;;5095110;28;20497;-77
2022/01/28 06:16:25;;;;;;;26.83;13.33;;;4.40;99.90;;;;;;5095500;28;20434;-81
2022/01/28 06:18:59;;;;;;;23.97;14.00;;;4.40;99.90;;;;;;5096352;28;20449;-77
2022/01/28 06:21:26;;;;;;;38.93;13.03;;;4.40;99.90;;;;;;5096052;28;20843;-76
2022/01/28 06:23:55;;;;;;;29.93;12.50;;;4.40;99.90;;;;;;5095377;28;20949;-76
2022/01/28 06:26:23;;;;;;;32.67;12.90;;;4.40;99.90;;;;;;5095673;28;20484;-82
2022/01/28 06:28:50;;;;;;;29.10;13.57;;;4.40;99.90;;;;;;5095611;28;20433;-77
2022/01/28 06:31:18;;;;;;;30.43;14.50;;;4.40;99.90;;;;;;5095461;28;20959;-75
2022/01/28 06:33:45;;;;;;;27.30;13.87;;;4.30;99.90;;;;;;5096241;28;20521;-77
2022/01/28 06:36:13;;;;;;;30.00;14.30;;;4.40;99.90;;;;;;5096362;28;20208;-76
2022/01/28 06:38:39;;;;;;;30.40;13.87;;;4.40;99.90;;;;;;5095566;28;20483;-76
2022/01/28 06:41:14;;;;;;;31.33;13.43;;;4.20;99.90;;;;;;5098121;28;20462;-76
2022/01/28 06:43:42;;;;;;;27.80;14.03;;;4.30;99.90;;;;;;5098419;28;20479;-77
2022/01/28 06:46:09;;;;;;;31.70;13.90;;;4.40;99.90;;;;;;5095208;28;20457;-76
2022/01/28 06:48:37;;;;;;;26.33;14.03;;;4.30;99.90;;;;;;5095674;28;20209;-77
2022/01/28 06:51:05;;;;;;;23.17;13.23;;;4.40;99.90;;;;;;5098032;28;20445;-77
2022/01/28 06:53:32;;;;;;;29.63;14.67;;;4.40;99.90;;;;;;5097877;28;20489;-76
2022/01/28 06:55:59;;;;;;;26.40;13.70;;;4.30;99.90;;;;;;5094770;28;20799;-76
2022/01/28 06:58:27;;;;;;;19.93;11.43;;;4.30;99.90;;;;;;5094524;28;20449;-80
2022/01/28 07:00:54;;;;;;;30.43;10.70;;;4.00;99.90;;;;;;5094089;28;20807;-78
2022/01/28 07:03:20;;;;;;;51.37;13.13;;;4.00;99.90;;;;;;5095242;28;20948;-85
2022/01/28 07:05:47;;;;;;;42.77;12.53;;;4.00;99.90;;;;;;5095107;28;20434;-76
2022/01/28 07:08:14;;;;;;;46.67;12.83;;;3.90;99.90;;;;;;5094144;28;20445;-77
2022/01/28 07:10:41;;;;;;;28.07;10.97;;;3.80;99.90;;;;;;5094582;28;20442;-81
2022/01/28 07:13:08;;;;;;;40.30;17.23;;;3.60;99.90;;;;;;5093136;28;20438;-76
2022/01/28 07:15:39;;;;;;;29.00;12.13;;;3.70;99.90;;;;;;5094491;28;20682;-79
2022/01/28 07:18:06;;;;;;;28.93;11.80;;;3.80;99.90;;;;;;5094419;28;20474;-82
2022/01/28 07:20:34;;;;;;;21.13;11.93;;;3.80;99.90;;;;;;5093813;28;20798;-79
2022/01/28 07:23:04;;;;;;;22.23;12.93;;;3.70;99.90;;;;;;5093555;28;20458;-75
2022/01/28 07:25:31;;;;;;;23.57;12.90;;;3.60;99.90;;;;;;5094599;28;20430;-76
2022/01/28 07:27:58;;;;;;;23.33;12.47;;;3.70;99.90;;;;;;5093772;28;20446;-78
2022/01/28 07:30:25;;;;;;;26.77;11.97;;;3.50;99.90;;;;;;5093566;28;20803;-75
2022/01/28 07:32:54;;;;;;;27.37;12.73;;;3.50;99.90;;;;;;5093734;28;20456;-81
2022/01/28 07:35:21;;;;;;;23.47;12.10;;;3.50;99.90;;;;;;5094547;28;20901;-79
2022/01/28 07:37:48;;;;;;;26.63;12.07;;;3.60;99.90;;;;;;5095033;28;20863;-77
2022/01/28 07:40:17;;;;;;;22.57;11.70;;;3.70;99.90;;;;;;5095310;28;20900;-76
2022/01/28 07:42:44;;;;;;;24.90;12.43;;;3.70;99.90;;;;;;5094813;28;20461;-78
2022/01/28 07:45:13;;;;;;;25.73;13.43;;;3.60;99.90;;;;;;5095402;28;20449;-77
2022/01/28 07:47:41;;;;;;;26.77;13.63;;;3.60;99.90;;;;;;5094044;28;20453;-78
2022/01/28 07:50:12;;;;;;;27.20;16.07;;;3.60;99.90;;;;;;5094536;28;20426;-77
2022/01/28 07:52:40;;;;;;;37.77;17.80;;;3.60;99.90;;;;;;5094874;28;20445;-78
2022/01/28 07:55:10;;;;;;;32.77;16.23;;;3.70;99.90;;;;;;5093832;28;20500;-77
2022/01/28 07:57:37;;;;;;;31.33;15.80;;;3.80;99.90;;;;;;5094652;28;20909;-83
2022/01/28 08:00:06;;;;;;;34.97;17.40;;;3.80;99.90;;;;;;5095339;28;20924;-79
2022/01/28 08:02:32;;;;;;;33.13;17.87;;;4.00;99.90;;;;;;5094739;28;20952;-79
2022/01/28 08:05:00;;;;;;;43.53;17.87;;;4.10;99.90;;;;;;5093701;28;20778;-77
2022/01/28 08:07:28;;;;;;;32.10;17.40;;;4.10;99.90;;;;;;5093807;28;20448;-78
2022/01/28 08:09:55;;;;;;;31.50;17.13;;;4.00;99.90;;;;;;5093601;28;20446;-84
2022/01/28 08:12:22;;;;;;;40.03;16.97;;;4.00;99.90;;;;;;5093589;28;20452;-78
2022/01/28 08:14:49;;;;;;;35.63;17.67;;;3.90;99.90;;;;;;5093371;28;20497;-83
2022/01/28 08:17:16;;;;;;;33.30;16.60;;;3.90;99.90;;;;;;5093064;28;20181;-79
2022/01/28 08:19:44;;;;;;;33.63;16.03;;;3.90;99.90;;;;;;5093688;28;20851;-80
2022/01/28 08:22:10;;;;;;;29.17;16.40;;;4.00;99.90;;;;;;5094115;28;20456;-76
2022/01/28 08:24:39;;;;;;;31.83;19.05;;;4.00;99.90;;;;;;5092625;28;20534;-78
2022/01/28 08:27:06;;;;;;;29.63;17.80;;;4.10;99.90;;;;;;5093310;28;20201;-77
2022/01/28 08:29:33;;;;;;;28.97;16.77;;;3.90;99.90;;;;;;5093671;28;20529;-79
2022/01/28 08:32:00;;;;;;;36.13;15.93;;;4.00;99.90;;;;;;5092909;28;20795;-79
2022/01/28 08:34:26;;;;;;;27.70;16.50;;;4.00;99.90;;;;;;5093040;28;20477;-79
2022/01/28 08:36:54;;;;;;;31.00;15.77;;;4.10;99.90;;;;;;5092625;28;20799;-77
2022/01/28 08:39:22;;;;;;;31.80;14.97;;;4.20;99.90;;;;;;5092657;28;20806;-83
2022/01/28 08:41:50;;;;;;;29.83;16.00;;;4.10;99.90;;;;;;5092859;28;20925;-78
2022/01/28 08:44:18;;;;;;;24.93;15.40;;;4.10;99.90;;;;;;5095339;28;20484;-80
2022/01/28 08:46:45;;;;;;;23.93;14.97;;;4.00;99.90;;;;;;5096032;28;20453;-78
2022/01/28 08:49:12;;;;;;;29.57;15.33;;;4.10;99.90;;;;;;5096563;28;20185;-76
2022/01/28 08:51:39;;;;;;;19.73;14.80;;;3.90;99.90;;;;;;5095887;28;20908;-75
2022/01/28 08:54:06;;;;;;;25.90;16.20;;;4.10;99.90;;;;;;5096940;28;20542;-81
2022/01/28 08:56:33;;;;;;;35.20;17.57;;;4.20;99.90;;;;;;5096306;28;20197;-76
2022/01/28 08:59:01;;;;;;;37.78;19.23;;;4.20;99.90;;;;;;5096026;28;20429;-78
2022/01/28 09:01:28;;;;;;;33.30;18.73;;;4.20;99.90;;;;;;5096407;28;20284;-76
2022/01/28 09:03:55;;;;;;;29.53;19.07;;;4.20;99.90;;;;;;5095060;28;20205;-79
2022/01/28 09:06:25;;;;;;;38.67;21.67;;;4.30;99.90;;;;;;5088541;28;20205;-78
2022/01/28 09:08:55;;;;;;;35.67;22.53;;;4.40;99.90;;;;;;5095567;28;20196;-75
2022/01/28 09:11:34;;;;;;;40.83;22.33;;;4.50;99.90;;;;;;5095773;28;20209;-78
2022/01/28 09:14:02;;;;;;;38.53;22.97;;;4.50;99.90;;;;;;5095321;28;20228;-75
2022/01/28 09:16:29;;;;;;;38.70;23.90;;;4.50;99.90;;;;;;5095185;28;20652;-75
2022/01/28 09:18:56;;;;;;;39.60;24.17;;;4.70;99.90;;;;;;5094305;28;20286;-76
2022/01/28 09:21:23;;;;;;;41.73;23.97;;;4.80;99.90;;;;;;5095213;28;20212;-76
2022/01/28 09:23:50;;;;;;;40.60;24.00;;;4.90;99.90;;;;;;5095791;28;20664;-86
2022/01/28 09:26:17;;;;;;;40.07;24.07;;;5.00;99.90;;;;;;5094083;28;20189;-79
2022/01/28 09:28:44;;;;;;;35.50;22.93;;;5.20;99.90;;;;;;5095405;28;20528;-78
2022/01/28 09:31:18;;;;;;;36.77;22.93;;;5.20;99.90;;;;;;5097191;28;20207;-80
2022/01/28 09:33:46;;;;;;;32.50;22.10;;;5.10;99.90;;;;;;5096895;28;20617;-78
2022/01/28 09:36:12;;;;;;;36.57;23.03;;;5.00;99.90;;;;;;5096268;28;20204;-79
2022/01/28 09:38:39;;;;;;;36.80;23.00;;;5.20;99.90;;;;;;5096603;28;20632;-82
2022/01/28 09:41:09;;;;;;;25.90;19.23;;;5.20;99.90;;;;;;5096553;28;20652;-76
2022/01/28 09:43:36;;;;;;;22.63;18.30;;;5.30;99.90;;;;;;5096161;28;20306;-77
2022/01/28 09:46:04;;;;;;;25.47;19.23;;;5.20;99.90;;;;;;5096213;28;20216;-76
2022/01/28 09:48:32;;;;;;;30.53;19.67;;;4.90;99.90;;;;;;5090058;28;20197;-76
2022/01/28 09:51:00;;;;;;;29.77;20.23;;;4.70;99.90;;;;;;5095886;28;20731;-76
2022/01/28 09:53:28;;;;;;;46.50;20.10;;;4.80;99.90;;;;;;5094995;28;20205;-83
2022/01/28 09:55:55;;;;;;;36.17;19.30;;;4.90;99.90;;;;;;5095562;28;20201;-77
2022/01/28 09:58:22;;;;;;;36.97;20.53;;;4.80;99.90;;;;;;5095281;28;20209;-78
2022/01/28 10:00:49;;;;;;;32.17;19.57;;;4.80;99.90;;;;;;5096211;28;20190;-76
2022/01/28 10:03:20;;;;;;;41.13;20.33;;;4.80;99.90;;;;;;5095564;28;20566;-78
2022/01/28 10:05:50;;;;;;;38.63;19.97;;;4.80;99.90;;;;;;5095524;28;20645;-76
2022/01/28 10:08:20;;;;;;;39.17;20.23;;;4.90;99.90;;;;;;5094887;28;20205;-77
2022/01/28 10:10:49;;;;;;;37.73;20.40;;;5.00;99.90;;;;;;5094346;28;20193;-75
2022/01/28 10:13:20;;;;;;;48.10;20.23;;;5.10;99.90;;;;;;5091660;28;20197;-74
2022/01/28 10:16:00;;;;;;;53.67;20.47;;;5.10;99.90;;;;;;5094278;28;20224;-77
2022/01/28 10:18:48;;;;;;;77.43;19.90;;;5.20;99.90;;;;;;5092574;28;20199;-77
2022/01/28 10:21:19;;;;;;;62.47;20.90;;;5.30;99.90;;;;;;5095033;28;20204;-86
2022/01/28 10:23:57;;;;;;;60.23;20.33;;;5.20;99.90;;;;;;5095783;28;20196;-80
2022/01/28 10:26:31;;;;;;;48.57;19.57;;;5.20;99.90;;;;;;5075579;28;20198;-82
2022/01/28 10:28:59;;;;;;;61.30;20.10;;;5.20;99.90;;;;;;5076451;28;20201;-88
2022/01/28 10:31:36;;;;;;;60.83;20.60;;;5.30;99.90;;;;;;5075607;28;20287;-90
2022/01/28 10:34:10;;;;;;;54.07;20.60;;;5.30;99.90;;;;;;5075772;28;20241;-90
2022/01/28 10:36:40;;;;;;;74.40;20.80;;;5.40;99.90;;;;;;5074851;28;20710;-86
2022/01/28 10:39:15;;;;;;;77.73;22.07;;;5.40;99.90;;;;;;5075406;28;20209;-86
2022/01/28 10:42:00;;;;;;;72.90;22.17;;;5.40;99.90;;;;;;5095578;28;20200;-85
2022/01/28 10:44:31;;;;;;;72.60;21.43;;;5.20;99.90;;;;;;5095805;28;20212;-86
2022/01/28 10:47:03;;;;;;;75.63;21.30;;;5.00;99.90;;;;;;5075473;28;20627;-78
2022/01/28 10:49:32;;;;;;;73.27;23.17;;;4.80;99.90;;;;;;5077281;28;20252;-79
2022/01/28 10:52:11;;;;;;;61.70;21.00;;;4.70;99.90;;;;;;5075740;28;20197;-78
2022/01/28 10:54:39;;;;;;;76.77;22.17;;;4.90;99.90;;;;;;5075443;28;20236;-75
2022/01/28 10:57:08;;;;;;;65.30;22.67;;;5.00;99.90;;;;;;5075350;28;20198;-74
2022/01/28 10:59:36;;;;;;;69.90;23.03;;;5.00;99.90;;;;;;5073839;28;20197;-76
2022/01/28 11:02:04;;;;;;;70.00;22.63;;;5.10;99.90;;;;;;5079922;28;20201;-78
2022/01/28 11:04:38;;;;;;;70.77;23.27;;;5.10;99.90;;;;;;5094581;28;20197;-87
2022/01/28 11:07:08;;;;;;;63.17;23.20;;;5.10;99.90;;;;;;5096859;28;20208;-88
2022/01/28 11:09:35;;;;;;;58.33;22.50;;;5.10;99.90;;;;;;5100096;28;20647;-91
2022/01/28 11:12:04;;;;;;;71.83;22.77;;;5.30;99.90;;;;;;5097087;28;20644;-78
2022/01/28 11:14:31;;;;;;;74.80;22.37;;;5.30;99.90;;;;;;5094254;28;20242;-75
2022/01/28 11:17:00;;;;;;;63.17;23.67;;;5.50;99.90;;;;;;5093795;28;20185;-88
2022/01/28 11:19:32;;;;;;;59.17;23.43;;;5.70;99.90;;;;;;5073631;28;20216;-92
2022/01/28 11:22:52;;;;;;;46.70;21.93;;;5.70;99.90;;;;;;5092635;28;20205;-77
2022/01/28 11:25:40;;;;;;;55.20;22.03;;;5.80;99.90;;;;;;5045721;28;20210;-76
2022/01/28 11:28:09;;;;;;;62.13;22.13;;;5.90;99.90;;;;;;5051815;28;20213;-82
2022/01/28 11:30:44;;;;;;;74.17;22.97;;;5.90;99.90;;;;;;5082792;28;20231;-76
2022/01/28 11:33:11;;;;;;;58.43;22.03;;;5.90;99.90;;;;;;5094228;28;20201;-76
2022/01/28 11:35:40;;;;;;;46.63;22.30;;;6.00;99.90;;;;;;5093807;28;20321;-76
2022/01/28 11:38:40;;;;;;;59.60;22.13;;;6.10;99.90;;;;;;5093842;28;20186;-81
2022/01/28 11:41:13;;;;;;;77.00;26.07;;;6.00;99.90;;;;;;5094725;28;20599;-75
2022/01/28 11:43:52;;;;;;;49.93;22.13;;;6.00;99.90;;;;;;5094076;28;20308;-76
2022/01/28 11:46:31;;;;;;;46.77;22.23;;;6.00;99.90;;;;;;5093344;28;20563;-78
2022/01/28 11:49:25;;;;;;;37.03;22.10;;;5.90;99.90;;;;;;5094453;28;20282;-87
2022/01/28 11:51:52;;;;;;;53.87;21.70;;;5.90;99.90;;;;;;5094739;28;20224;-75
2022/01/28 11:54:34;;;;;;;47.07;20.53;;;5.60;99.90;;;;;;5092758;28;20232;-78
2022/01/28 11:57:18;;;;;;;55.77;21.80;;;5.60;99.90;;;;;;5093590;28;20270;-77
2022/01/28 11:59:46;;;;;;;58.50;24.13;;;5.50;99.90;;;;;;5090916;28;20212;-77
2022/01/28 12:02:24;;;;;;;52.78;30.10;;;5.60;99.90;;;;;;5093088;28;20929;-76
2022/01/28 12:04:51;;;;;;;49.17;25.00;;;5.60;99.90;;;;;;5095368;28;20193;-78
2022/01/28 12:07:23;;;;;;;61.57;25.60;;;5.70;99.90;;;;;;5096595;28;20262;-79
2022/01/28 12:09:53;;;;;;;49.37;24.20;;;5.80;99.90;;;;;;5096864;28;20284;-76
2022/01/28 12:12:59;;;;;;;50.33;25.17;;;5.80;99.90;;;;;;5096559;28;20515;-78
2022/01/28 12:15:30;;;;;;;51.93;24.10;;;5.70;99.90;;;;;;5094951;28;20628;-75
2022/01/28 12:18:10;;;;;;;41.90;24.80;;;5.70;99.90;;;;;;5098015;28;20197;-82
2022/01/28 12:20:58;;;;;;;48.20;25.07;;;5.80;99.90;;;;;;5100244;28;20197;-79
2022/01/28 12:23:29;;;;;;;38.10;23.90;;;5.90;99.90;;;;;;5099583;28;20212;-85
2022/01/28 12:26:00;;;;;;;42.07;23.37;;;5.80;99.90;;;;;;5099345;28;20701;-81
2022/01/28 12:28:51;;;;;;;37.77;24.33;;;5.70;99.90;;;;;;5098678;28;20205;-83
2022/01/28 12:31:24;;;;;;;42.97;26.33;;;5.60;99.90;;;;;;5098039;28;20610;-82
2022/01/28 12:33:53;;;;;;;45.83;25.47;;;5.80;99.90;;;;;;5099503;28;20204;-84
2022/01/28 12:36:22;;;;;;;67.23;23.90;;;5.80;99.90;;;;;;5101077;28;20232;-84
2022/01/28 12:41:50;;;;;;;54.13;25.07;;;6.00;99.90;;;;;;5093285;28;20280;-86
2022/01/28 12:44:19;;;;;;;48.40;24.03;;;6.10;99.90;;;;;;5100033;28;20201;-85
2022/01/28 12:46:55;;;;;;;51.17;24.37;;;6.00;99.90;;;;;;5100658;28;20296;-85
2022/01/28 12:49:28;;;;;;;51.83;24.43;;;5.90;99.90;;;;;;5100696;28;20201;-84
2022/01/28 12:51:58;;;;;;;42.77;24.47;;;5.90;99.90;;;;;;5099056;28;20205;-85
2022/01/28 12:54:36;;;;;;;54.90;25.53;;;5.80;99.90;;;;;;5102646;28;20201;-85
2022/01/28 12:57:04;;;;;;;50.60;23.53;;;5.90;99.90;;;;;;5101648;28;20205;-84
2022/01/28 12:59:35;;;;;;;51.57;24.20;;;5.80;99.90;;;;;;5103263;28;20193;-84
2022/01/28 13:02:02;;;;;;;75.53;25.57;;;5.70;99.90;;;;;;5102799;28;20711;-88
2022/01/28 13:04:51;;;;;;;65.60;24.50;;;5.70;99.90;;;;;;5103797;28;20205;-85
2022/01/28 13:10:05;;;;;;;58.50;25.43;;;6.10;99.90;;;;;;5099565;28;20543;-85
2022/01/28 13:12:33;;;;;;;60.17;25.70;;;6.10;99.90;;;;;;5098497;28;20214;-83
2022/01/28 13:15:10;;;;;;;50.60;26.47;;;6.20;99.90;;;;;;5097613;28;20260;-84
2022/01/28 13:17:38;;;;;;;56.93;27.40;;;6.30;99.90;;;;;;5098167;28;20276;-86
2022/01/28 13:20:09;;;;;;;57.40;28.60;;;6.40;99.90;;;;;;5097563;28;20205;-86
2022/01/28 13:22:36;;;;;;;59.90;28.77;;;6.20;99.90;;;;;;5099266;28;20201;-86
2022/01/28 13:25:17;;;;;;;64.63;29.43;;;6.20;99.90;;;;;;5096654;28;20393;-85
2022/01/28 13:27:46;;;;;;;63.80;28.57;;;6.30;99.90;;;;;;5096795;28;20685;-86
2022/01/28 13:30:18;;;;;;;69.87;30.70;;;6.30;99.90;;;;;;5096279;28;20244;-86
2022/01/28 13:32:49;;;;;;;67.43;29.47;;;6.30;99.90;;;;;;5096271;28;20535;-88
2022/01/28 13:35:17;;;;;;;70.90;31.03;;;6.30;99.90;;;;;;5096739;28;20278;-86
2022/01/28 13:37:46;;;;;;;84.17;32.80;;;6.40;99.90;;;;;;5096806;28;20193;-86
2022/01/28 13:40:32;;;;;;;77.10;32.67;;;6.40;99.90;;;;;;5095666;28;20213;-85
2022/01/28 13:43:00;;;;;;;79.80;32.53;;;6.50;99.90;;;;;;5096323;28;20231;-87
2022/01/28 13:45:35;;;;;;;84.33;33.80;;;6.40;99.90;;;;;;5096833;28;20228;-83
2022/01/28 13:48:03;;;;;;;79.07;34.33;;;6.40;99.90;;;;;;5096291;28;20284;-86
2022/01/28 13:50:33;;;;;;;74.67;35.90;;;6.40;99.90;;;;;;5097160;28;20213;-84
2022/01/28 13:53:19;;;;;;;82.07;35.80;;;6.50;99.90;;;;;;5097333;28;20200;-86
2022/01/28 13:55:46;;;;;;;80.70;37.37;;;6.40;99.90;;;;;;5096916;28;20324;-85
2022/01/28 13:58:13;;;;;;;84.13;38.30;;;6.40;99.90;;;;;;5097594;28;20196;-86